Terminal Aerodrome Forecast
Issued by NWS

Home | Current Version | Previous Version | Text Only | Print | Product List | Glossary On
Versions: 1 2 3 4 5 6 7 8 9 10 11 12 13 14 15 16
000
FTUS43 KICT 200415 AAA
TAFHUT
TAF AMD
KHUT 200415Z 2004/2024 17014G20KT 5SM -RA OVC015
     FM200900 17010KT P6SM BKN025
     FM201200 19010KT P6SM SCT015=

USA.gov is the U.S. government's official web portal to all federal, state and local government web resources and services.